sensor_id;sensor_type;location;lat;lon;timestamp;P1;durP1;ratioP1;P2;durP2;ratioP2
5349;SDS011;2697;42.144;24.794;2024-02-26T00:00:26;50.10;;;27.07;;
5349;SDS011;2697;42.144;24.794;2024-02-26T00:02:51;71.30;;;27.67;;
5349;SDS011;2697;42.144;24.794;2024-02-26T00:05:16;65.73;;;27.80;;
5349;SDS011;2697;42.144;24.794;2024-02-26T00:07:42;60.40;;;28.93;;
5349;SDS011;2697;42.144;24.794;2024-02-26T00:10:07;51.17;;;24.33;;
5349;SDS011;2697;42.144;24.794;2024-02-26T00:12:33;46.53;;;21.60;;
5349;SDS011;2697;42.144;24.794;2024-02-26T00:14:59;42.17;;;21.33;;
5349;SDS011;2697;42.144;24.794;2024-02-26T00:17:24;47.27;;;18.80;;
5349;SDS011;2697;42.144;24.794;2024-02-26T00:19:50;42.20;;;17.87;;
5349;SDS011;2697;42.144;24.794;2024-02-26T00:22:15;35.40;;;17.10;;
5349;SDS011;2697;42.144;24.794;2024-02-26T00:24:41;32.20;;;18.07;;
5349;SDS011;2697;42.144;24.794;2024-02-26T00:27:06;46.10;;;16.60;;
5349;SDS011;2697;42.144;24.794;2024-02-26T00:29:32;40.03;;;15.57;;
5349;SDS011;2697;42.144;24.794;2024-02-26T00:31:57;36.63;;;17.73;;
5349;SDS011;2697;42.144;24.794;2024-02-26T00:34:23;26.00;;;15.90;;
5349;SDS011;2697;42.144;24.794;2024-02-26T00:36:49;39.63;;;17.57;;
5349;SDS011;2697;42.144;24.794;2024-02-26T00:39:14;34.83;;;17.37;;
5349;SDS011;2697;42.144;24.794;2024-02-26T00:41:40;36.03;;;18.60;;
5349;SDS011;2697;42.144;24.794;2024-02-26T00:44:05;35.70;;;17.70;;
5349;SDS011;2697;42.144;24.794;2024-02-26T00:46:31;31.10;;;17.07;;
5349;SDS011;2697;42.144;24.794;2024-02-26T00:48:56;33.27;;;16.67;;
5349;SDS011;2697;42.144;24.794;2024-02-26T00:51:22;35.20;;;17.60;;
5349;SDS011;2697;42.144;24.794;2024-02-26T00:53:47;42.70;;;18.13;;
5349;SDS011;2697;42.144;24.794;2024-02-26T00:56:12;35.90;;;19.37;;
5349;SDS011;2697;42.144;24.794;2024-02-26T00:58:38;35.53;;;16.93;;
5349;SDS011;2697;42.144;24.794;2024-02-26T01:01:04;30.83;;;16.63;;
5349;SDS011;2697;42.144;24.794;2024-02-26T01:03:29;39.00;;;13.63;;
5349;SDS011;2697;42.144;24.794;2024-02-26T01:05:54;38.20;;;18.23;;
5349;SDS011;2697;42.144;24.794;2024-02-26T01:08:20;36.53;;;17.60;;
5349;SDS011;2697;42.144;24.794;2024-02-26T01:10:45;36.73;;;17.90;;
5349;SDS011;2697;42.144;24.794;2024-02-26T01:13:11;30.40;;;16.77;;
5349;SDS011;2697;42.144;24.794;2024-02-26T01:15:36;33.50;;;14.57;;
5349;SDS011;2697;42.144;24.794;2024-02-26T01:18:01;36.80;;;16.37;;
5349;SDS011;2697;42.144;24.794;2024-02-26T01:20:27;39.37;;;17.93;;
5349;SDS011;2697;42.144;24.794;2024-02-26T01:22:52;45.57;;;20.30;;
5349;SDS011;2697;42.144;24.794;2024-02-26T01:25:17;45.33;;;21.33;;
5349;SDS011;2697;42.144;24.794;2024-02-26T01:27:43;45.33;;;22.40;;
5349;SDS011;2697;42.144;24.794;2024-02-26T01:30:09;55.17;;;25.57;;
5349;SDS011;2697;42.144;24.794;2024-02-26T01:32:35;43.00;;;23.93;;
5349;SDS011;2697;42.144;24.794;2024-02-26T01:35:01;43.20;;;24.80;;
5349;SDS011;2697;42.144;24.794;2024-02-26T01:37:28;65.30;;;25.07;;
5349;SDS011;2697;42.144;24.794;2024-02-26T01:39:55;50.33;;;23.70;;
5349;SDS011;2697;42.144;24.794;2024-02-26T01:42:20;71.37;;;26.50;;
5349;SDS011;2697;42.144;24.794;2024-02-26T01:44:46;60.23;;;27.57;;
5349;SDS011;2697;42.144;24.794;2024-02-26T01:47:11;49.87;;;24.60;;
5349;SDS011;2697;42.144;24.794;2024-02-26T01:49:37;63.23;;;27.77;;
5349;SDS011;2697;42.144;24.794;2024-02-26T01:52:04;51.27;;;27.10;;
5349;SDS011;2697;42.144;24.794;2024-02-26T01:54:31;60.07;;;26.93;;
5349;SDS011;2697;42.144;24.794;2024-02-26T01:57:00;48.70;;;26.30;;
5349;SDS011;2697;42.144;24.794;2024-02-26T01:59:26;52.57;;;26.63;;
5349;SDS011;2697;42.144;24.794;2024-02-26T02:01:54;50.83;;;24.83;;
5349;SDS011;2697;42.144;24.794;2024-02-26T02:04:23;54.40;;;23.53;;
5349;SDS011;2697;42.144;24.794;2024-02-26T02:06:50;68.50;;;29.80;;
5349;SDS011;2697;42.144;24.794;2024-02-26T02:09:15;51.97;;;28.47;;
5349;SDS011;2697;42.144;24.794;2024-02-26T02:11:41;60.63;;;27.87;;
5349;SDS011;2697;42.144;24.794;2024-02-26T02:14:07;64.23;;;29.23;;
5349;SDS011;2697;42.144;24.794;2024-02-26T02:16:32;63.00;;;31.07;;
5349;SDS011;2697;42.144;24.794;2024-02-26T02:18:58;62.77;;;31.50;;
5349;SDS011;2697;42.144;24.794;2024-02-26T02:21:24;57.67;;;31.77;;
5349;SDS011;2697;42.144;24.794;2024-02-26T02:23:49;58.03;;;29.23;;
5349;SDS011;2697;42.144;24.794;2024-02-26T02:26:14;59.20;;;30.60;;
5349;SDS011;2697;42.144;24.794;2024-02-26T02:28:40;45.70;;;25.23;;
5349;SDS011;2697;42.144;24.794;2024-02-26T02:31:07;48.67;;;26.13;;
5349;SDS011;2697;42.144;24.794;2024-02-26T02:33:33;54.90;;;26.30;;
5349;SDS011;2697;42.144;24.794;2024-02-26T02:35:59;55.83;;;25.37;;
5349;SDS011;2697;42.144;24.794;2024-02-26T02:38:25;51.93;;;25.70;;
5349;SDS011;2697;42.144;24.794;2024-02-26T02:40:51;59.70;;;30.27;;
5349;SDS011;2697;42.144;24.794;2024-02-26T02:43:17;52.40;;;28.00;;
5349;SDS011;2697;42.144;24.794;2024-02-26T02:45:42;68.67;;;28.80;;
5349;SDS011;2697;42.144;24.794;2024-02-26T02:48:08;59.47;;;30.10;;
5349;SDS011;2697;42.144;24.794;2024-02-26T02:50:33;54.70;;;29.97;;
5349;SDS011;2697;42.144;24.794;2024-02-26T02:52:58;57.53;;;30.03;;
5349;SDS011;2697;42.144;24.794;2024-02-26T02:55:24;62.70;;;31.00;;
5349;SDS011;2697;42.144;24.794;2024-02-26T02:57:50;60.20;;;33.60;;
5349;SDS011;2697;42.144;24.794;2024-02-26T03:00:15;84.13;;;34.30;;
5349;SDS011;2697;42.144;24.794;2024-02-26T03:02:41;84.53;;;37.60;;
5349;SDS011;2697;42.144;24.794;2024-02-26T03:05:07;76.00;;;34.90;;
5349;SDS011;2697;42.144;24.794;2024-02-26T03:07:33;73.47;;;36.07;;
5349;SDS011;2697;42.144;24.794;2024-02-26T03:09:58;61.30;;;33.47;;
5349;SDS011;2697;42.144;24.794;2024-02-26T03:12:24;72.03;;;36.17;;
5349;SDS011;2697;42.144;24.794;2024-02-26T03:14:49;69.13;;;34.07;;
5349;SDS011;2697;42.144;24.794;2024-02-26T03:17:15;69.13;;;33.63;;
5349;SDS011;2697;42.144;24.794;2024-02-26T03:19:40;65.77;;;33.20;;
5349;SDS011;2697;42.144;24.794;2024-02-26T03:22:05;71.90;;;34.43;;
5349;SDS011;2697;42.144;24.794;2024-02-26T03:24:31;65.23;;;32.27;;
5349;SDS011;2697;42.144;24.794;2024-02-26T03:26:56;69.33;;;34.30;;
5349;SDS011;2697;42.144;24.794;2024-02-26T03:29:22;67.90;;;33.90;;
5349;SDS011;2697;42.144;24.794;2024-02-26T03:31:47;70.40;;;35.67;;
5349;SDS011;2697;42.144;24.794;2024-02-26T03:34:13;72.17;;;33.63;;
5349;SDS011;2697;42.144;24.794;2024-02-26T03:36:39;76.27;;;35.47;;
5349;SDS011;2697;42.144;24.794;2024-02-26T03:39:05;70.43;;;34.60;;
5349;SDS011;2697;42.144;24.794;2024-02-26T03:41:33;61.27;;;31.37;;
5349;SDS011;2697;42.144;24.794;2024-02-26T03:43:58;65.20;;;29.87;;
5349;SDS011;2697;42.144;24.794;2024-02-26T03:46:24;61.70;;;32.40;;
5349;SDS011;2697;42.144;24.794;2024-02-26T03:48:49;56.93;;;28.63;;
5349;SDS011;2697;42.144;24.794;2024-02-26T03:51:15;52.53;;;25.23;;
5349;SDS011;2697;42.144;24.794;2024-02-26T03:53:41;70.80;;;29.00;;
5349;SDS011;2697;42.144;24.794;2024-02-26T03:56:07;50.30;;;26.60;;
5349;SDS011;2697;42.144;24.794;2024-02-26T03:58:32;62.80;;;25.17;;
5349;SDS011;2697;42.144;24.794;2024-02-26T04:00:58;54.20;;;26.63;;
5349;SDS011;2697;42.144;24.794;2024-02-26T04:03:25;45.30;;;25.13;;
5349;SDS011;2697;42.144;24.794;2024-02-26T04:05:50;71.83;;;26.37;;
5349;SDS011;2697;42.144;24.794;2024-02-26T04:08:16;65.93;;;23.63;;
5349;SDS011;2697;42.144;24.794;2024-02-26T04:10:41;44.60;;;22.80;;
5349;SDS011;2697;42.144;24.794;2024-02-26T04:13:07;40.20;;;20.70;;
5349;SDS011;2697;42.144;24.794;2024-02-26T04:15:32;51.20;;;21.83;;
5349;SDS011;2697;42.144;24.794;2024-02-26T04:17:58;37.53;;;20.37;;
5349;SDS011;2697;42.144;24.794;2024-02-26T04:20:23;37.23;;;17.50;;
5349;SDS011;2697;42.144;24.794;2024-02-26T04:22:49;35.77;;;18.90;;
5349;SDS011;2697;42.144;24.794;2024-02-26T04:25:14;30.50;;;16.73;;
5349;SDS011;2697;42.144;24.794;2024-02-26T04:27:40;34.43;;;16.50;;
5349;SDS011;2697;42.144;24.794;2024-02-26T04:30:06;30.13;;;17.17;;
5349;SDS011;2697;42.144;24.794;2024-02-26T04:32:32;39.00;;;19.13;;
5349;SDS011;2697;42.144;24.794;2024-02-26T04:34:57;35.30;;;17.73;;
5349;SDS011;2697;42.144;24.794;2024-02-26T04:37:23;29.43;;;17.90;;
5349;SDS011;2697;42.144;24.794;2024-02-26T04:39:48;33.37;;;16.27;;
5349;SDS011;2697;42.144;24.794;2024-02-26T04:42:13;37.33;;;16.47;;
5349;SDS011;2697;42.144;24.794;2024-02-26T04:44:39;28.17;;;14.70;;
5349;SDS011;2697;42.144;24.794;2024-02-26T04:47:04;30.10;;;13.87;;
5349;SDS011;2697;42.144;24.794;2024-02-26T04:49:30;27.80;;;16.30;;
5349;SDS011;2697;42.144;24.794;2024-02-26T04:51:55;31.63;;;14.83;;
5349;SDS011;2697;42.144;24.794;2024-02-26T04:54:21;33.93;;;13.63;;
5349;SDS011;2697;42.144;24.794;2024-02-26T04:56:46;26.90;;;13.70;;
5349;SDS011;2697;42.144;24.794;2024-02-26T04:59:12;27.63;;;14.33;;
5349;SDS011;2697;42.144;24.794;2024-02-26T05:01:37;26.90;;;14.50;;
5349;SDS011;2697;42.144;24.794;2024-02-26T05:04:03;25.40;;;13.93;;
5349;SDS011;2697;42.144;24.794;2024-02-26T05:06:28;32.93;;;13.93;;
5349;SDS011;2697;42.144;24.794;2024-02-26T05:08:54;22.33;;;13.20;;
5349;SDS011;2697;42.144;24.794;2024-02-26T05:11:19;34.00;;;14.23;;
5349;SDS011;2697;42.144;24.794;2024-02-26T05:13:45;25.30;;;14.47;;
5349;SDS011;2697;42.144;24.794;2024-02-26T05:16:10;28.53;;;15.13;;
5349;SDS011;2697;42.144;24.794;2024-02-26T05:18:36;27.93;;;15.10;;
5349;SDS011;2697;42.144;24.794;2024-02-26T05:21:01;24.27;;;15.03;;
5349;SDS011;2697;42.144;24.794;2024-02-26T05:23:28;27.40;;;15.20;;
5349;SDS011;2697;42.144;24.794;2024-02-26T05:25:54;29.47;;;15.03;;
5349;SDS011;2697;42.144;24.794;2024-02-26T05:28:19;41.17;;;15.33;;
5349;SDS011;2697;42.144;24.794;2024-02-26T05:30:45;18.90;;;12.57;;
5349;SDS011;2697;42.144;24.794;2024-02-26T05:33:11;19.60;;;12.00;;
5349;SDS011;2697;42.144;24.794;2024-02-26T05:35:37;28.13;;;12.77;;
5349;SDS011;2697;42.144;24.794;2024-02-26T05:38:02;28.63;;;13.60;;
5349;SDS011;2697;42.144;24.794;2024-02-26T05:40:28;37.07;;;13.83;;
5349;SDS011;2697;42.144;24.794;2024-02-26T05:42:55;37.07;;;11.73;;
5349;SDS011;2697;42.144;24.794;2024-02-26T05:45:20;25.80;;;12.20;;
5349;SDS011;2697;42.144;24.794;2024-02-26T05:47:47;25.87;;;11.80;;
5349;SDS011;2697;42.144;24.794;2024-02-26T05:50:12;22.73;;;11.27;;
5349;SDS011;2697;42.144;24.794;2024-02-26T05:52:38;18.90;;;11.93;;
5349;SDS011;2697;42.144;24.794;2024-02-26T05:55:04;19.23;;;11.40;;
5349;SDS011;2697;42.144;24.794;2024-02-26T05:57:30;28.40;;;11.77;;
5349;SDS011;2697;42.144;24.794;2024-02-26T05:59:56;23.17;;;11.80;;
5349;SDS011;2697;42.144;24.794;2024-02-26T06:02:21;24.20;;;11.23;;
5349;SDS011;2697;42.144;24.794;2024-02-26T06:04:47;24.07;;;11.67;;
5349;SDS011;2697;42.144;24.794;2024-02-26T06:07:12;24.13;;;12.53;;
5349;SDS011;2697;42.144;24.794;2024-02-26T06:09:38;19.63;;;10.47;;
5349;SDS011;2697;42.144;24.794;2024-02-26T06:12:04;21.73;;;11.87;;
5349;SDS011;2697;42.144;24.794;2024-02-26T06:14:30;22.73;;;10.60;;
5349;SDS011;2697;42.144;24.794;2024-02-26T06:16:55;29.80;;;13.77;;
5349;SDS011;2697;42.144;24.794;2024-02-26T06:19:21;26.07;;;14.37;;
5349;SDS011;2697;42.144;24.794;2024-02-26T06:21:46;29.53;;;14.13;;
5349;SDS011;2697;42.144;24.794;2024-02-26T06:24:11;34.20;;;15.73;;
5349;SDS011;2697;42.144;24.794;2024-02-26T06:26:37;28.10;;;13.90;;
5349;SDS011;2697;42.144;24.794;2024-02-26T06:29:02;38.13;;;11.83;;
5349;SDS011;2697;42.144;24.794;2024-02-26T06:31:27;23.03;;;10.80;;
5349;SDS011;2697;42.144;24.794;2024-02-26T06:33:53;22.13;;;11.80;;
5349;SDS011;2697;42.144;24.794;2024-02-26T06:36:20;25.83;;;12.60;;
5349;SDS011;2697;42.144;24.794;2024-02-26T06:38:45;23.60;;;13.30;;
5349;SDS011;2697;42.144;24.794;2024-02-26T06:41:11;33.43;;;13.40;;
5349;SDS011;2697;42.144;24.794;2024-02-26T06:43:36;24.23;;;12.80;;
5349;SDS011;2697;42.144;24.794;2024-02-26T06:46:02;24.23;;;12.93;;
5349;SDS011;2697;42.144;24.794;2024-02-26T06:48:27;21.23;;;12.40;;
5349;SDS011;2697;42.144;24.794;2024-02-26T06:50:53;23.63;;;12.20;;
5349;SDS011;2697;42.144;24.794;2024-02-26T06:53:18;28.57;;;11.30;;
5349;SDS011;2697;42.144;24.794;2024-02-26T06:55:44;23.57;;;11.80;;
5349;SDS011;2697;42.144;24.794;2024-02-26T06:58:09;35.67;;;11.90;;
5349;SDS011;2697;42.144;24.794;2024-02-26T07:00:35;26.07;;;13.10;;
5349;SDS011;2697;42.144;24.794;2024-02-26T07:03:00;29.47;;;14.67;;
5349;SDS011;2697;42.144;24.794;2024-02-26T07:05:26;34.47;;;12.83;;
5349;SDS011;2697;42.144;24.794;2024-02-26T07:07:52;27.63;;;13.23;;
5349;SDS011;2697;42.144;24.794;2024-02-26T07:10:18;24.07;;;13.40;;
5349;SDS011;2697;42.144;24.794;2024-02-26T07:12:43;29.03;;;13.17;;
5349;SDS011;2697;42.144;24.794;2024-02-26T07:15:09;31.73;;;13.50;;
5349;SDS011;2697;42.144;24.794;2024-02-26T07:17:35;23.33;;;14.80;;
5349;SDS011;2697;42.144;24.794;2024-02-26T07:20:00;35.17;;;15.87;;
5349;SDS011;2697;42.144;24.794;2024-02-26T07:22:26;30.20;;;15.50;;
5349;SDS011;2697;42.144;24.794;2024-02-26T07:24:51;39.57;;;13.43;;
5349;SDS011;2697;42.144;24.794;2024-02-26T07:27:18;37.53;;;14.73;;
5349;SDS011;2697;42.144;24.794;2024-02-26T07:29:43;40.17;;;15.80;;
5349;SDS011;2697;42.144;24.794;2024-02-26T07:32:09;34.70;;;15.83;;
5349;SDS011;2697;42.144;24.794;2024-02-26T07:34:35;26.57;;;13.60;;
5349;SDS011;2697;42.144;24.794;2024-02-26T07:37:02;39.63;;;15.73;;
5349;SDS011;2697;42.144;24.794;2024-02-26T07:39:28;29.60;;;15.60;;
5349;SDS011;2697;42.144;24.794;2024-02-26T07:41:53;26.57;;;14.43;;
5349;SDS011;2697;42.144;24.794;2024-02-26T07:44:19;29.37;;;15.10;;
5349;SDS011;2697;42.144;24.794;2024-02-26T07:46:44;42.87;;;15.33;;
5349;SDS011;2697;42.144;24.794;2024-02-26T07:49:09;30.47;;;15.37;;
5349;SDS011;2697;42.144;24.794;2024-02-26T07:51:35;38.47;;;16.27;;
5349;SDS011;2697;42.144;24.794;2024-02-26T07:54:00;40.03;;;16.97;;
5349;SDS011;2697;42.144;24.794;2024-02-26T07:56:26;33.73;;;16.87;;
5349;SDS011;2697;42.144;24.794;2024-02-26T07:58:52;33.77;;;16.53;;
5349;SDS011;2697;42.144;24.794;2024-02-26T08:01:17;55.23;;;17.10;;
5349;SDS011;2697;42.144;24.794;2024-02-26T08:03:42;37.27;;;14.43;;
5349;SDS011;2697;42.144;24.794;2024-02-26T08:06:08;42.70;;;16.20;;
5349;SDS011;2697;42.144;24.794;2024-02-26T08:08:34;42.50;;;17.87;;
5349;SDS011;2697;42.144;24.794;2024-02-26T08:10:59;34.27;;;16.47;;
5349;SDS011;2697;42.144;24.794;2024-02-26T08:13:25;30.80;;;18.00;;
5349;SDS011;2697;42.144;24.794;2024-02-26T08:15:51;43.00;;;19.23;;
5349;SDS011;2697;42.144;24.794;2024-02-26T08:18:17;35.13;;;16.03;;
5349;SDS011;2697;42.144;24.794;2024-02-26T08:20:42;41.60;;;17.90;;
5349;SDS011;2697;42.144;24.794;2024-02-26T08:23:08;52.67;;;16.67;;
5349;SDS011;2697;42.144;24.794;2024-02-26T08:25:33;42.40;;;15.80;;
5349;SDS011;2697;42.144;24.794;2024-02-26T08:27:58;31.90;;;17.77;;
5349;SDS011;2697;42.144;24.794;2024-02-26T08:30:24;40.60;;;15.97;;
5349;SDS011;2697;42.144;24.794;2024-02-26T08:32:49;45.87;;;17.63;;
5349;SDS011;2697;42.144;24.794;2024-02-26T08:35:15;30.03;;;16.67;;
5349;SDS011;2697;42.144;24.794;2024-02-26T08:37:43;32.30;;;16.20;;
5349;SDS011;2697;42.144;24.794;2024-02-26T08:40:10;33.43;;;15.20;;
5349;SDS011;2697;42.144;24.794;2024-02-26T08:42:35;29.90;;;15.50;;
5349;SDS011;2697;42.144;24.794;2024-02-26T08:45:01;32.23;;;17.07;;
5349;SDS011;2697;42.144;24.794;2024-02-26T08:47:27;30.23;;;14.60;;
5349;SDS011;2697;42.144;24.794;2024-02-26T08:49:53;30.80;;;16.00;;
5349;SDS011;2697;42.144;24.794;2024-02-26T08:52:18;23.10;;;15.23;;
5349;SDS011;2697;42.144;24.794;2024-02-26T08:54:44;30.13;;;16.70;;
5349;SDS011;2697;42.144;24.794;2024-02-26T08:57:10;34.07;;;16.07;;
5349;SDS011;2697;42.144;24.794;2024-02-26T08:59:35;34.30;;;15.03;;
5349;SDS011;2697;42.144;24.794;2024-02-26T09:02:00;25.17;;;16.27;;
5349;SDS011;2697;42.144;24.794;2024-02-26T09:04:26;27.23;;;15.33;;
5349;SDS011;2697;42.144;24.794;2024-02-26T09:06:52;39.83;;;16.00;;
5349;SDS011;2697;42.144;24.794;2024-02-26T09:09:18;41.03;;;16.63;;
5349;SDS011;2697;42.144;24.794;2024-02-26T09:11:43;32.00;;;15.70;;
5349;SDS011;2697;42.144;24.794;2024-02-26T09:14:08;39.00;;;15.67;;
5349;SDS011;2697;42.144;24.794;2024-02-26T09:16:34;43.20;;;17.00;;
5349;SDS011;2697;42.144;24.794;2024-02-26T09:18:59;27.97;;;13.80;;
5349;SDS011;2697;42.144;24.794;2024-02-26T09:21:25;27.30;;;14.40;;
5349;SDS011;2697;42.144;24.794;2024-02-26T09:23:51;23.20;;;13.47;;
5349;SDS011;2697;42.144;24.794;2024-02-26T09:26:17;25.73;;;13.10;;
5349;SDS011;2697;42.144;24.794;2024-02-26T09:28:42;28.20;;;14.20;;
5349;SDS011;2697;42.144;24.794;2024-02-26T09:31:08;26.10;;;13.57;;
5349;SDS011;2697;42.144;24.794;2024-02-26T09:33:33;23.03;;;13.27;;
5349;SDS011;2697;42.144;24.794;2024-02-26T09:35:59;32.83;;;13.57;;
5349;SDS011;2697;42.144;24.794;2024-02-26T09:38:27;25.90;;;15.20;;
5349;SDS011;2697;42.144;24.794;2024-02-26T09:40:55;36.90;;;16.53;;
5349;SDS011;2697;42.144;24.794;2024-02-26T09:43:22;27.43;;;14.67;;
5349;SDS011;2697;42.144;24.794;2024-02-26T09:45:52;31.27;;;15.20;;
5349;SDS011;2697;42.144;24.794;2024-02-26T09:48:18;36.47;;;12.90;;
5349;SDS011;2697;42.144;24.794;2024-02-26T09:50:44;34.87;;;14.73;;
5349;SDS011;2697;42.144;24.794;2024-02-26T09:53:11;40.50;;;14.23;;
5349;SDS011;2697;42.144;24.794;2024-02-26T09:55:37;55.17;;;18.30;;
5349;SDS011;2697;42.144;24.794;2024-02-26T09:58:03;32.50;;;15.20;;
5349;SDS011;2697;42.144;24.794;2024-02-26T10:00:30;30.70;;;14.20;;
5349;SDS011;2697;42.144;24.794;2024-02-26T10:03:09;34.23;;;14.40;;
5349;SDS011;2697;42.144;24.794;2024-02-26T10:05:40;21.23;;;13.03;;
5349;SDS011;2697;42.144;24.794;2024-02-26T10:08:06;32.03;;;12.50;;
5349;SDS011;2697;42.144;24.794;2024-02-26T10:10:34;33.20;;;13.00;;
5349;SDS011;2697;42.144;24.794;2024-02-26T10:13:01;34.57;;;15.57;;
5349;SDS011;2697;42.144;24.794;2024-02-26T10:15:26;28.70;;;13.20;;
5349;SDS011;2697;42.144;24.794;2024-02-26T10:17:52;34.17;;;14.57;;
5349;SDS011;2697;42.144;24.794;2024-02-26T10:20:18;30.47;;;12.87;;
5349;SDS011;2697;42.144;24.794;2024-02-26T10:22:46;26.40;;;12.90;;
5349;SDS011;2697;42.144;24.794;2024-02-26T10:25:12;33.17;;;12.33;;
5349;SDS011;2697;42.144;24.794;2024-02-26T10:27:37;36.80;;;12.57;;
5349;SDS011;2697;42.144;24.794;2024-02-26T10:30:24;28.90;;;13.60;;
5349;SDS011;2697;42.144;24.794;2024-02-26T10:32:50;28.77;;;14.07;;
5349;SDS011;2697;42.144;24.794;2024-02-26T10:35:16;29.17;;;13.63;;
5349;SDS011;2697;42.144;24.794;2024-02-26T10:37:43;23.03;;;13.40;;
5349;SDS011;2697;42.144;24.794;2024-02-26T10:40:12;28.17;;;14.03;;
5349;SDS011;2697;42.144;24.794;2024-02-26T10:42:41;27.50;;;11.60;;
5349;SDS011;2697;42.144;24.794;2024-02-26T10:45:07;25.43;;;12.93;;
5349;SDS011;2697;42.144;24.794;2024-02-26T10:47:37;27.63;;;12.70;;
5349;SDS011;2697;42.144;24.794;2024-02-26T10:50:04;36.63;;;13.93;;
5349;SDS011;2697;42.144;24.794;2024-02-26T10:52:34;26.13;;;14.23;;
5349;SDS011;2697;42.144;24.794;2024-02-26T10:55:01;21.80;;;12.77;;
5349;SDS011;2697;42.144;24.794;2024-02-26T10:57:29;41.27;;;13.07;;
5349;SDS011;2697;42.144;24.794;2024-02-26T10:59:59;23.07;;;13.07;;
5349;SDS011;2697;42.144;24.794;2024-02-26T11:02:26;25.70;;;12.23;;
5349;SDS011;2697;42.144;24.794;2024-02-26T11:04:52;22.40;;;11.70;;
5349;SDS011;2697;42.144;24.794;2024-02-26T11:07:18;21.03;;;10.93;;
5349;SDS011;2697;42.144;24.794;2024-02-26T11:09:45;50.33;;;14.00;;
5349;SDS011;2697;42.144;24.794;2024-02-26T11:12:17;80.33;;;17.53;;
5349;SDS011;2697;42.144;24.794;2024-02-26T11:14:44;95.10;;;20.50;;
5349;SDS011;2697;42.144;24.794;2024-02-26T11:17:11;66.87;;;17.60;;
5349;SDS011;2697;42.144;24.794;2024-02-26T11:19:38;41.43;;;16.07;;
5349;SDS011;2697;42.144;24.794;2024-02-26T11:22:06;134.43;;;26.40;;
5349;SDS011;2697;42.144;24.794;2024-02-26T11:24:32;53.20;;;15.93;;
5349;SDS011;2697;42.144;24.794;2024-02-26T11:26:58;40.63;;;15.47;;
5349;SDS011;2697;42.144;24.794;2024-02-26T11:29:28;24.73;;;13.70;;
5349;SDS011;2697;42.144;24.794;2024-02-26T11:31:59;35.70;;;16.30;;
5349;SDS011;2697;42.144;24.794;2024-02-26T11:34:26;50.30;;;17.20;;
5349;SDS011;2697;42.144;24.794;2024-02-26T11:36:52;25.90;;;15.57;;
5349;SDS011;2697;42.144;24.794;2024-02-26T11:39:18;33.27;;;17.50;;
5349;SDS011;2697;42.144;24.794;2024-02-26T11:41:44;37.03;;;15.40;;
5349;SDS011;2697;42.144;24.794;2024-02-26T11:44:10;29.10;;;15.50;;
5349;SDS011;2697;42.144;24.794;2024-02-26T11:46:39;30.23;;;15.40;;
5349;SDS011;2697;42.144;24.794;2024-02-26T11:51:53;33.47;;;16.43;;
5349;SDS011;2697;42.144;24.794;2024-02-26T11:57:19;33.93;;;14.83;;
5349;SDS011;2697;42.144;24.794;2024-02-26T12:00:15;31.33;;;15.47;;
5349;SDS011;2697;42.144;24.794;2024-02-26T12:05:11;20.43;;;12.63;;
5349;SDS011;2697;42.144;24.794;2024-02-26T12:07:43;25.63;;;13.37;;
5349;SDS011;2697;42.144;24.794;2024-02-26T12:12:54;24.73;;;13.07;;
5349;SDS011;2697;42.144;24.794;2024-02-26T12:15:24;25.77;;;12.47;;
5349;SDS011;2697;42.144;24.794;2024-02-26T12:17:54;25.70;;;11.70;;
5349;SDS011;2697;42.144;24.794;2024-02-26T12:20:21;21.07;;;11.40;;
5349;SDS011;2697;42.144;24.794;2024-02-26T12:22:47;22.77;;;11.90;;
5349;SDS011;2697;42.144;24.794;2024-02-26T12:25:13;30.23;;;11.70;;
5349;SDS011;2697;42.144;24.794;2024-02-26T12:27:39;20.33;;;9.70;;
5349;SDS011;2697;42.144;24.794;2024-02-26T12:30:04;21.37;;;8.93;;
5349;SDS011;2697;42.144;24.794;2024-02-26T12:32:31;17.77;;;10.40;;
5349;SDS011;2697;42.144;24.794;2024-02-26T12:34:57;21.87;;;11.30;;
5349;SDS011;2697;42.144;24.794;2024-02-26T12:37:24;34.03;;;12.00;;
5349;SDS011;2697;42.144;24.794;2024-02-26T12:39:52;22.70;;;11.50;;
5349;SDS011;2697;42.144;24.794;2024-02-26T12:42:18;20.50;;;9.80;;
5349;SDS011;2697;42.144;24.794;2024-02-26T12:44:44;27.13;;;10.80;;
5349;SDS011;2697;42.144;24.794;2024-02-26T12:47:10;22.13;;;11.27;;
5349;SDS011;2697;42.144;24.794;2024-02-26T12:49:41;19.30;;;9.90;;
5349;SDS011;2697;42.144;24.794;2024-02-26T12:52:07;24.90;;;10.33;;
5349;SDS011;2697;42.144;24.794;2024-02-26T12:54:33;47.47;;;10.67;;
5349;SDS011;2697;42.144;24.794;2024-02-26T12:57:00;20.80;;;10.20;;
5349;SDS011;2697;42.144;24.794;2024-02-26T12:59:27;25.27;;;10.03;;
5349;SDS011;2697;42.144;24.794;2024-02-26T13:01:53;23.00;;;9.30;;
5349;SDS011;2697;42.144;24.794;2024-02-26T13:04:19;17.70;;;10.70;;
5349;SDS011;2697;42.144;24.794;2024-02-26T13:06:44;20.13;;;10.50;;
5349;SDS011;2697;42.144;24.794;2024-02-26T13:09:12;24.50;;;11.57;;
5349;SDS011;2697;42.144;24.794;2024-02-26T13:11:41;23.83;;;10.33;;
5349;SDS011;2697;42.144;24.794;2024-02-26T13:14:07;20.70;;;10.70;;
5349;SDS011;2697;42.144;24.794;2024-02-26T13:16:32;27.63;;;11.80;;
5349;SDS011;2697;42.144;24.794;2024-02-26T13:19:08;29.93;;;11.30;;
5349;SDS011;2697;42.144;24.794;2024-02-26T13:21:35;19.07;;;10.80;;
5349;SDS011;2697;42.144;24.794;2024-02-26T13:24:00;20.53;;;10.33;;
5349;SDS011;2697;42.144;24.794;2024-02-26T13:26:26;17.20;;;9.63;;
5349;SDS011;2697;42.144;24.794;2024-02-26T13:29:15;16.23;;;9.17;;
5349;SDS011;2697;42.144;24.794;2024-02-26T13:31:46;20.60;;;9.23;;
5349;SDS011;2697;42.144;24.794;2024-02-26T13:34:26;41.83;;;8.77;;
5349;SDS011;2697;42.144;24.794;2024-02-26T13:36:53;15.03;;;8.83;;
5349;SDS011;2697;42.144;24.794;2024-02-26T13:39:25;15.43;;;9.07;;
5349;SDS011;2697;42.144;24.794;2024-02-26T13:41:52;27.93;;;9.43;;
5349;SDS011;2697;42.144;24.794;2024-02-26T13:44:19;23.17;;;7.13;;
5349;SDS011;2697;42.144;24.794;2024-02-26T13:46:44;20.90;;;10.97;;
5349;SDS011;2697;42.144;24.794;2024-02-26T13:49:10;16.30;;;10.70;;
5349;SDS011;2697;42.144;24.794;2024-02-26T13:51:36;19.80;;;7.50;;
5349;SDS011;2697;42.144;24.794;2024-02-26T13:54:02;19.40;;;7.23;;
5349;SDS011;2697;42.144;24.794;2024-02-26T13:56:28;20.87;;;7.63;;
5349;SDS011;2697;42.144;24.794;2024-02-26T13:58:54;20.90;;;7.10;;
5349;SDS011;2697;42.144;24.794;2024-02-26T14:01:19;19.20;;;5.67;;
5349;SDS011;2697;42.144;24.794;2024-02-26T14:03:45;24.13;;;6.90;;
5349;SDS011;2697;42.144;24.794;2024-02-26T14:06:10;11.87;;;5.20;;
5349;SDS011;2697;42.144;24.794;2024-02-26T14:08:36;19.77;;;5.90;;
5349;SDS011;2697;42.144;24.794;2024-02-26T14:11:01;17.97;;;5.30;;
5349;SDS011;2697;42.144;24.794;2024-02-26T14:13:26;13.37;;;5.93;;
5349;SDS011;2697;42.144;24.794;2024-02-26T14:15:52;13.20;;;6.13;;
5349;SDS011;2697;42.144;24.794;2024-02-26T14:18:17;25.63;;;6.23;;
5349;SDS011;2697;42.144;24.794;2024-02-26T14:20:43;9.83;;;5.10;;
5349;SDS011;2697;42.144;24.794;2024-02-26T14:23:09;15.87;;;5.23;;
5349;SDS011;2697;42.144;24.794;2024-02-26T14:25:35;20.97;;;5.87;;
5349;SDS011;2697;42.144;24.794;2024-02-26T14:28:01;17.00;;;5.70;;
5349;SDS011;2697;42.144;24.794;2024-02-26T14:30:27;21.03;;;6.00;;
5349;SDS011;2697;42.144;24.794;2024-02-26T14:32:53;17.70;;;6.10;;
5349;SDS011;2697;42.144;24.794;2024-02-26T14:35:19;24.83;;;5.97;;
5349;SDS011;2697;42.144;24.794;2024-02-26T14:37:44;19.90;;;6.87;;
5349;SDS011;2697;42.144;24.794;2024-02-26T14:40:11;13.43;;;5.27;;